Airport View

Enter AWOS ICAO identifier for current METAR.

ex. KFNL

PALH 251653Z AUTO 33005KT 10SM OVC046 02/M01 A3008 RMK AO2 RAB1557E28 SLP187 P0000 T00171011 TSNO

25 Oct 2020 17:10

Phone: 907-245-1618

Other Area AWOS: PANC - PAMR - PAED - PAFR

TAF AMD PANC 251528Z 2515/2618 34008KT P6SM VCSH FEW030 OVC070 WS020/13030KT FM251800 36008KT P6SM -RA SCT020 BKN050 FM260300 02010KT 6SM -RASN SCT015 OVC035 FM260600 02010KT 2SM -SN SCT003 OVC015